Time;durP1;ratioP1;P1;durP2;ratioP2;P2;SDS_P1;SDS_P2;PMS_P1;PMS_P2;Temp;Humidity;BMP_temperature;BMP_pressure;BME280_temperature;BME280_humidity;BME280_pressure;Samples;Min_cycle;Max_cycle;Signal;HPM_P1;HPM_P2
2022/06/06 00:00:24;;;;;;;15.50;3.45;;;;;;;17.88;100.00;98053.97;5047231;28;20936;-55
2022/06/06 00:02:50;;;;;;;12.70;3.13;;;;;;;18.06;100.00;98055.31;5052070;28;20072;-56
2022/06/06 00:05:16;;;;;;;16.55;3.75;;;;;;;18.13;100.00;98047.81;5044601;28;20082;-54
2022/06/06 00:07:43;;;;;;;12.55;3.20;;;;;;;17.88;100.00;98040.78;5047341;28;20025;-57
2022/06/06 00:10:10;;;;;;;18.17;3.92;;;;;;;17.91;100.00;98044.03;5047849;28;20033;-55
2022/06/06 00:12:36;;;;;;;10.18;2.85;;;;;;;18.05;100.00;98029.88;5048822;28;20021;-55
2022/06/06 00:15:02;;;;;;;11.70;2.97;;;;;;;17.91;100.00;98037.94;5046446;28;20082;-55
2022/06/06 00:17:28;;;;;;;10.40;2.83;;;;;;;17.89;100.00;98027.47;5049483;28;20029;-55
2022/06/06 00:19:54;;;;;;;23.15;4.38;;;;;;;17.91;100.00;98030.84;5047293;28;20079;-55
2022/06/06 00:22:19;;;;;;;15.45;3.78;;;;;;;17.73;100.00;98038.22;5047596;28;20049;-55
2022/06/06 00:24:45;;;;;;;14.20;3.42;;;;;;;17.78;100.00;98040.56;5048391;28;20054;-57
2022/06/06 00:27:10;;;;;;;13.25;3.40;;;;;;;17.82;100.00;98036.75;5050760;28;20131;-57
2022/06/06 00:29:35;;;;;;;12.68;3.28;;;;;;;17.78;100.00;98035.28;5050822;28;20814;-54
2022/06/06 00:34:49;;;;;;;16.10;3.67;;;;;;;17.41;100.00;98032.56;5047921;28;20454;-56
2022/06/06 00:37:18;;;;;;;18.98;4.00;;;;;;;17.45;100.00;98039.28;5045723;28;20087;-54
2022/06/06 00:39:45;;;;;;;13.65;3.25;;;;;;;17.30;100.00;98046.47;5056735;28;20028;-56
2022/06/06 00:42:16;;;;;;;12.88;3.13;;;;;;;17.59;100.00;98045.41;5046383;28;20095;-54
2022/06/06 00:44:41;;;;;;;15.82;3.00;;;;;;;17.71;100.00;98037.50;5047636;28;20021;-55
2022/06/06 00:47:25;;;;;;;9.68;2.90;;;;;;;17.45;100.00;98041.94;5046116;28;20554;-53
2022/06/06 00:49:54;;;;;;;13.52;3.55;;;;;;;17.30;100.00;98043.00;5048411;28;20036;-54
2022/06/06 00:52:30;;;;;;;11.32;3.20;;;;;;;17.44;100.00;98042.03;5047793;28;20062;-57
2022/06/06 00:55:00;;;;;;;11.40;3.30;;;;;;;17.55;100.00;98031.59;5049241;28;20029;-55
2022/06/06 00:57:31;;;;;;;11.00;3.10;;;;;;;17.60;100.00;98037.38;5048093;28;20035;-55
2022/06/06 00:59:58;;;;;;;19.77;4.18;;;;;;;17.64;100.00;98032.75;5053867;28;20025;-54
2022/06/06 01:02:23;;;;;;;14.32;3.30;;;;;;;17.86;100.00;98032.97;5047807;28;20489;-56
2022/06/06 01:04:49;;;;;;;21.17;5.15;;;;;;;17.66;100.00;98036.13;5048139;28;20479;-55
2022/06/06 01:07:15;;;;;;;12.15;3.30;;;;;;;17.82;100.00;98038.53;5048024;28;20086;-55
2022/06/06 01:09:42;;;;;;;10.55;3.20;;;;;;;17.64;100.00;98044.13;5044750;28;20685;-55
2022/06/06 01:12:13;;;;;;;9.43;2.90;;;;;;;17.85;100.00;98039.22;5048903;28;20613;-55
2022/06/06 01:14:50;;;;;;;10.57;2.90;;;;;;;17.71;100.00;98040.13;5046331;28;20024;-55
2022/06/06 01:17:34;;;;;;;12.98;3.25;;;;;;;17.92;100.00;98037.81;5045854;28;20098;-56
2022/06/06 01:20:02;;;;;;;13.38;3.70;;;;;;;17.94;100.00;98042.13;5055544;28;20122;-54
2022/06/06 01:22:55;;;;;;;12.30;3.50;;;;;;;17.72;100.00;98035.72;5047770;28;20218;-55
2022/06/06 01:25:58;;;;;;;9.68;3.05;;;;;;;17.76;100.00;98037.19;5050489;28;20780;-56
2022/06/06 01:28:55;;;;;;;11.55;3.00;;;;;;;17.53;100.00;98039.63;5049124;28;20584;-56
2022/06/06 01:31:54;;;;;;;8.75;2.85;;;;;;;18.18;100.00;98035.13;5038786;28;20542;-55
2022/06/06 01:34:27;;;;;;;12.20;3.45;;;;;;;17.92;100.00;98024.63;5050055;28;20068;-56
2022/06/06 01:36:55;;;;;;;12.75;3.50;;;;;;;18.07;100.00;98029.78;5050550;28;20037;-56
2022/06/06 01:39:22;;;;;;;11.60;3.25;;;;;;;17.98;100.00;98035.72;5048877;28;20078;-57
2022/06/06 01:42:12;;;;;;;12.80;3.13;;;;;;;18.01;100.00;98027.56;5045631;28;20044;-55
2022/06/06 01:44:37;;;;;;;11.27;3.30;;;;;;;18.02;100.00;98022.19;5050928;28;20498;-55
2022/06/06 01:47:07;;;;;;;15.23;3.72;;;;;;;17.98;100.00;98025.16;5046282;28;20059;-54
2022/06/06 01:49:33;;;;;;;11.98;2.97;;;;;;;17.96;100.00;98019.13;5046707;28;20029;-55
2022/06/06 01:52:02;;;;;;;14.07;3.85;;;;;;;17.73;100.00;98032.09;5049860;28;20483;-55
2022/06/06 01:54:28;;;;;;;14.65;3.95;;;;;;;18.05;100.00;98029.06;5053117;28;20020;-55
2022/06/06 01:56:54;;;;;;;13.05;3.80;;;;;;;18.04;100.00;98035.28;5050931;28;20041;-55
2022/06/06 01:59:20;;;;;;;12.30;3.38;;;;;;;17.89;100.00;98030.13;5051224;28;20024;-55
2022/06/06 02:01:46;;;;;;;11.07;3.38;;;;;;;17.83;100.00;98027.88;5049570;28;20035;-55
2022/06/06 02:04:11;;;;;;;14.70;3.88;;;;;;;17.89;100.00;98026.66;5052252;28;20029;-55
2022/06/06 02:06:40;;;;;;;11.93;3.53;;;;;;;17.85;100.00;98025.19;5052520;28;20495;-54
2022/06/06 02:09:05;;;;;;;9.98;3.38;;;;;;;17.87;100.00;98026.75;5050523;28;20032;-56
2022/06/06 02:11:31;;;;;;;9.45;3.15;;;;;;;17.43;100.00;98030.66;5051549;28;20037;-55
2022/06/06 02:13:56;;;;;;;10.88;3.38;;;;;;;17.61;100.00;98027.69;5050996;28;20032;-54
2022/06/06 02:16:24;;;;;;;12.98;3.65;;;;;;;17.57;100.00;98028.84;5052462;28;20031;-55
2022/06/06 02:18:49;;;;;;;13.95;3.83;;;;;;;17.48;100.00;98033.81;5048278;28;20029;-56
2022/06/06 02:21:16;;;;;;;12.52;3.42;;;;;;;17.91;100.00;98038.75;5050210;28;20040;-55
2022/06/06 02:23:43;;;;;;;11.35;3.28;;;;;;;17.99;100.00;98032.09;5051096;28;20029;-56
2022/06/06 02:26:09;;;;;;;12.57;3.95;;;;;;;17.75;100.00;98035.47;5050866;28;20041;-55
2022/06/06 02:28:36;;;;;;;15.25;4.07;;;;;;;17.71;100.00;98036.66;5053361;28;20051;-56
2022/06/06 02:31:02;;;;;;;8.90;3.33;;;;;;;17.55;100.00;98023.66;5049133;28;20581;-55
2022/06/06 02:33:27;;;;;;;12.05;3.33;;;;;;;17.94;100.00;98023.66;5051867;28;20025;-54
2022/06/06 02:35:53;;;;;;;11.93;3.35;;;;;;;17.76;100.00;98031.06;5052271;28;20044;-56
2022/06/06 02:38:19;;;;;;;10.25;3.58;;;;;;;17.50;100.00;98034.56;5051743;28;20032;-56
2022/06/06 02:40:44;;;;;;;10.75;3.72;;;;;;;17.83;100.00;98033.16;5048265;28;20445;-55
2022/06/06 02:43:11;;;;;;;12.35;3.65;;;;;;;17.39;100.00;98044.13;5050313;28;20032;-55
2022/06/06 02:45:36;;;;;;;15.23;4.22;;;;;;;17.54;100.00;98038.66;5050730;28;20040;-56
2022/06/06 02:48:01;;;;;;;13.70;3.78;;;;;;;17.65;100.00;98039.72;5050232;28;20025;-55
2022/06/06 02:50:29;;;;;;;10.18;3.15;;;;;;;17.71;100.00;98044.56;5049326;28;20124;-54
2022/06/06 02:52:55;;;;;;;10.43;3.15;;;;;;;18.02;100.00;98032.72;5050322;28;20040;-57
2022/06/06 02:55:21;;;;;;;11.23;3.40;;;;;;;17.72;100.00;98041.81;5050453;28;20098;-55
2022/06/06 02:57:49;;;;;;;11.50;3.45;;;;;;;17.41;100.00;98048.38;5051045;28;20106;-55
2022/06/06 03:00:21;;;;;;;10.07;3.45;;;;;;;17.40;100.00;98046.66;5049131;28;20017;-54
2022/06/06 03:02:47;;;;;;;13.65;3.28;;;;;;;17.37;100.00;98040.75;5050020;28;20023;-54
2022/06/06 03:05:14;;;;;;;10.60;3.70;;;;;;;17.46;100.00;98050.69;5051984;28;20021;-56
2022/06/06 03:07:55;;;;;;;12.07;3.67;;;;;;;17.21;100.00;98056.78;5051850;28;20012;-56
2022/06/06 03:11:02;;;;;;;9.80;3.55;;;;;;;16.97;100.00;98060.09;5049909;28;20017;-57
2022/06/06 03:14:04;;;;;;;10.70;3.38;;;;;;;17.44;100.00;98057.84;4998531;28;20036;-56
2022/06/06 03:22:26;;;;;;;13.93;3.90;;;;;;;17.32;100.00;98056.91;5050094;28;20047;-57
2022/06/06 03:25:10;;;;;;;13.40;4.10;;;;;;;17.10;100.00;98075.94;5050375;28;20032;-56
2022/06/06 03:27:44;;;;;;;11.95;3.58;;;;;;;17.33;100.00;98071.75;5051890;28;20823;-57
2022/06/06 03:30:15;;;;;;;14.25;4.22;;;;;;;17.33;100.00;98066.47;5046965;28;20086;-56
2022/06/06 03:33:16;;;;;;;18.48;4.43;;;;;;;16.90;100.00;98069.34;5050331;28;20177;-57
2022/06/06 03:35:49;;;;;;;14.02;3.97;;;;;;;16.97;100.00;98075.91;5050843;28;20040;-56
2022/06/06 03:38:28;;;;;;;11.80;3.72;;;;;;;16.99;100.00;98073.19;5050416;28;20060;-56
2022/06/06 03:41:23;;;;;;;11.82;3.58;;;;;;;17.17;100.00;98076.38;5049930;28;20091;-56
2022/06/06 03:44:10;;;;;;;12.35;3.70;;;;;;;17.02;100.00;98072.97;5040275;28;20132;-56
2022/06/06 03:46:54;;;;;;;11.82;3.17;;;;;;;17.12;100.00;98076.69;5050224;28;20045;-55
2022/06/06 03:49:31;;;;;;;11.05;3.55;;;;;;;16.76;100.00;98078.97;5049272;28;20073;-56
2022/06/06 03:52:00;;;;;;;10.73;3.13;;;;;;;17.37;100.00;98083.81;5050169;28;20041;-58
2022/06/06 03:54:34;;;;;;;10.80;3.20;;;;;;;17.60;100.00;98086.66;5051541;28;20039;-55
2022/06/06 03:57:14;;;;;;;14.63;3.72;;;;;;;17.09;100.00;98098.84;5050822;28;20047;-56
2022/06/06 03:59:42;;;;;;;12.10;3.55;;;;;;;17.28;100.00;98100.25;5048126;28;20028;-56
2022/06/06 04:02:11;;;;;;;14.43;4.13;;;;;;;17.49;100.00;98106.69;5048306;28;20623;-56
2022/06/06 04:04:37;;;;;;;10.20;3.40;;;;;;;17.30;100.00;98104.47;5048130;28;20024;-55
2022/06/06 04:07:03;;;;;;;10.95;3.72;;;;;;;16.81;100.00;98114.72;5050595;28;20041;-56
2022/06/06 04:09:30;;;;;;;11.32;3.72;;;;;;;17.35;100.00;98112.06;5047770;28;20114;-57
2022/06/06 04:12:14;;;;;;;11.63;3.63;;;;;;;17.37;100.00;98115.44;5046947;28;20518;-57
2022/06/06 04:15:27;;;;;;;10.95;3.55;;;;;;;18.22;100.00;98107.88;5049280;28;20028;-55
2022/06/06 04:17:52;;;;;;;12.32;3.67;;;;;;;17.81;100.00;98113.34;5016172;28;20044;-57
2022/06/06 04:20:24;;;;;;;9.80;3.25;;;;;;;18.09;100.00;98117.63;5048689;28;20831;-56
2022/06/06 04:23:27;;;;;;;9.05;3.08;;;;;;;19.60;100.00;98118.09;5048725;28;20060;-56
2022/06/06 04:26:06;;;;;;;8.77;3.17;;;;;;;18.71;100.00;98122.03;5048106;28;20045;-56
2022/06/06 04:28:45;;;;;;;13.80;3.95;;;;;;;18.59;100.00;98125.53;5047707;28;20098;-56
2022/06/06 04:31:13;;;;;;;10.75;3.20;;;;;;;18.41;100.00;98127.69;5047991;28;20635;-56
2022/06/06 04:33:42;;;;;;;9.45;3.28;;;;;;;18.64;100.00;98110.22;5049267;28;20068;-57
2022/06/06 04:36:07;;;;;;;10.00;3.20;;;;;;;18.76;100.00;98111.09;5050763;28;20095;-56
2022/06/06 04:38:54;;;;;;;13.25;4.05;;;;;;;19.23;100.00;98098.88;5049762;28;20031;-56
2022/06/06 04:41:47;;;;;;;11.88;3.70;;;;;;;19.27;100.00;98116.19;5048977;28;20033;-55
2022/06/06 04:44:35;;;;;;;9.65;3.22;;;;;;;19.99;100.00;98096.63;5042870;28;20036;-56
2022/06/06 04:47:28;;;;;;;8.77;3.60;;;;;;;18.80;100.00;98117.84;5050647;28;20507;-55
2022/06/06 04:49:56;;;;;;;13.68;4.10;;;;;;;19.17;100.00;98125.75;5046819;28;20033;-55
2022/06/06 04:52:22;;;;;;;13.45;3.45;;;;;;;19.19;100.00;98126.50;5050203;28;20390;-55
2022/06/06 04:54:48;;;;;;;12.05;4.22;;;;;;;18.97;100.00;98127.25;5048826;28;20400;-56
2022/06/06 04:57:17;;;;;;;9.93;3.38;;;;;;;20.33;100.00;98121.31;5050064;28;20032;-57
2022/06/06 04:59:44;;;;;;;9.15;3.50;;;;;;;21.54;100.00;98107.13;5047559;28;20024;-55
2022/06/06 05:02:11;;;;;;;9.90;3.20;;;;;;;20.95;100.00;98116.41;5047810;28;20036;-57
2022/06/06 05:04:36;;;;;;;8.70;3.40;;;;;;;21.17;100.00;98113.69;5048521;28;20381;-56
2022/06/06 05:07:11;;;;;;;8.57;3.45;;;;;;;20.06;100.00;98104.94;5047747;28;20033;-55
2022/06/06 05:09:58;;;;;;;9.63;3.38;;;;;;;20.89;100.00;98115.09;5048616;28;20178;-56
2022/06/06 05:13:12;;;;;;;9.20;2.70;;;;;;;22.26;100.00;98103.63;5048090;28;20614;-55
2022/06/06 05:16:01;;;;;;;9.65;3.80;;;;;;;20.77;100.00;98113.47;5048545;28;20490;-56
2022/06/06 05:18:57;;;;;;;9.00;3.60;;;;;;;21.55;100.00;98111.47;5049083;28;20024;-54
2022/06/06 05:21:49;;;;;;;7.32;3.25;;;;;;;20.55;100.00;98119.63;5045014;28;20414;-55
2022/06/06 05:24:42;;;;;;;10.15;3.50;;;;;;;21.30;100.00;98121.47;5047587;28;20033;-54
2022/06/06 05:27:08;;;;;;;10.82;4.00;;;;;;;20.61;100.00;98129.75;5052432;28;20083;-55
2022/06/06 05:29:51;;;;;;;9.07;3.65;;;;;;;20.51;100.00;98129.63;5051787;28;20032;-57
2022/06/06 05:32:25;;;;;;;10.70;3.95;;;;;;;20.55;100.00;98128.41;5052129;28;20182;-54
2022/06/06 05:35:29;;;;;;;9.73;3.67;;;;;;;20.66;100.00;98127.56;5054028;28;20035;-56
2022/06/06 05:38:22;;;;;;;9.48;3.45;;;;;;;20.56;100.00;98135.38;5051953;28;20036;-56
2022/06/06 05:41:07;;;;;;;11.55;3.40;;;;;;;21.02;100.00;98128.19;5051133;28;20048;-55
2022/06/06 05:43:57;;;;;;;9.80;3.70;;;;;;;20.54;100.00;98133.81;5052743;28;20089;-54
2022/06/06 05:47:01;;;;;;;9.68;3.85;;;;;;;21.10;100.00;98119.59;5050887;28;20493;-57
2022/06/06 05:49:34;;;;;;;8.80;3.70;;;;;;;20.85;100.00;98126.09;5052516;28;20033;-56
2022/06/06 05:52:24;;;;;;;8.95;3.30;;;;;;;21.34;100.00;98128.19;5049294;28;20032;-55
2022/06/06 05:55:11;;;;;;;8.90;3.63;;;;;;;20.93;100.00;98123.63;5051340;28;20670;-55
2022/06/06 05:57:55;;;;;;;10.70;4.05;;;;;;;21.30;100.00;98121.47;5050755;28;20056;-55
2022/06/06 06:00:34;;;;;;;10.68;4.30;;;;;;;22.20;100.00;98120.06;5059273;28;20032;-56
2022/06/06 06:03:38;;;;;;;8.63;3.55;;;;;;;22.49;100.00;98120.19;5050354;28;20017;-57
2022/06/06 06:06:22;;;;;;;10.10;3.92;;;;;;;22.11;100.00;98116.41;5040570;28;20729;-56
2022/06/06 06:08:50;;;;;;;10.00;3.92;;;;;;;24.23;100.00;98104.34;5052615;28;20973;-55
2022/06/06 06:11:34;;;;;;;7.72;3.65;;;;;;;26.06;100.00;98097.91;5052711;28;20071;-55
2022/06/06 06:14:29;;;;;;;9.27;3.35;;;;;;;25.31;100.00;98096.53;5052348;28;20118;-56
2022/06/06 06:16:58;;;;;;;7.97;3.50;;;;;;;24.57;100.00;98101.09;5047083;28;20087;-55
2022/06/06 06:19:31;;;;;;;7.78;3.45;;;;;;;24.65;100.00;98099.50;5050510;28;20054;-55
2022/06/06 06:21:59;;;;;;;6.03;3.28;;;;;;;24.25;100.00;98098.84;5052097;28;20040;-55
2022/06/06 06:24:36;;;;;;;7.72;3.45;;;;;;;23.87;100.00;98098.00;5051118;28;20033;-56
2022/06/06 06:27:03;;;;;;;6.78;3.95;;;;;;;22.81;100.00;98100.56;5052376;28;20041;-55
2022/06/06 06:29:29;;;;;;;12.35;4.18;;;;;;;22.33;100.00;98109.22;5052039;28;20036;-55
2022/06/06 06:32:13;;;;;;;8.65;4.10;;;;;;;23.13;100.00;98110.13;5049347;28;20426;-55
2022/06/06 06:35:09;;;;;;;10.52;4.15;;;;;;;22.87;100.00;98115.94;5051302;28;20111;-54
2022/06/06 06:37:56;;;;;;;11.55;4.45;;;;;;;21.93;100.00;98123.31;5052424;28;20033;-56
2022/06/06 06:40:48;;;;;;;8.13;4.40;;;;;;;21.11;100.00;98137.19;5049991;28;20108;-55
2022/06/06 06:43:33;;;;;;;11.73;4.78;;;;;;;21.11;100.00;98142.50;5059921;28;20028;-54
2022/06/06 06:46:01;;;;;;;8.57;4.45;;;;;;;21.38;100.00;98129.63;5018347;28;20102;-56
2022/06/06 06:48:36;;;;;;;11.85;4.72;;;;;;;21.54;100.00;98128.34;5051008;28;20123;-55
2022/06/06 06:51:10;;;;;;;9.38;5.00;;;;;;;21.49;100.00;98130.56;5051082;28;20143;-54
2022/06/06 06:53:43;;;;;;;11.20;4.72;;;;;;;21.80;100.00;98138.56;5049938;28;20080;-54
2022/06/06 06:56:25;;;;;;;12.52;4.72;;;;;;;22.33;100.00;98135.81;5052195;28;20119;-56
2022/06/06 06:59:32;;;;;;;15.15;5.53;;;;;;;22.19;100.00;98122.88;5051012;28;20028;-54
2022/06/06 07:09:04;;;;;;;13.85;5.10;;;;;;;22.30;100.00;98134.25;5050980;28;20130;-54
2022/06/06 07:11:42;;;;;;;12.75;5.40;;;;;;;22.43;100.00;98134.03;5050195;28;20055;-54
2022/06/06 07:14:37;;;;;;;10.70;5.13;;;;;;;22.25;100.00;98127.63;5051785;28;20116;-54
2022/06/06 07:17:04;;;;;;;13.15;5.50;;;;;;;22.28;100.00;98122.09;5049455;28;20040;-56
2022/06/06 07:19:44;;;;;;;11.45;5.10;;;;;;;22.11;100.00;98126.16;5046030;28;20931;-55
2022/06/06 07:22:10;;;;;;;11.63;4.30;;;;;;;22.99;100.00;98118.47;5047962;28;20040;-56
2022/06/06 07:24:38;;;;;;;13.30;4.78;;;;;;;22.71;100.00;98127.09;5052222;28;20025;-55
2022/06/06 07:27:05;;;;;;;10.38;5.05;;;;;;;22.41;100.00;98128.00;5048941;28;20060;-55
2022/06/06 07:29:32;;;;;;;11.32;4.70;;;;;;;23.63;100.00;98119.75;5049549;28;20033;-55
2022/06/06 07:32:06;;;;;;;10.18;5.10;;;;;;;22.50;100.00;98119.22;5048038;28;20040;-56
2022/06/06 07:34:32;;;;;;;11.60;5.38;;;;;;;22.96;100.00;98122.28;5049643;28;20040;-55
2022/06/06 07:37:06;;;;;;;10.73;4.72;;;;;;;22.72;100.00;98125.31;5049474;28;20040;-55
2022/06/06 07:40:03;;;;;;;9.02;4.38;;;;;;;23.13;100.00;98118.09;5047682;28;20127;-57
2022/06/06 07:42:36;;;;;;;12.57;4.57;;;;;;;24.14;100.00;98107.88;5047912;28;20039;-56
2022/06/06 07:45:14;;;;;;;10.75;4.85;;;;;;;24.43;100.00;98101.59;5048823;28;20032;-54
2022/06/06 07:48:01;;;;;;;8.32;4.30;;;;;;;24.08;100.00;98108.47;5048525;28;20045;-54
2022/06/06 07:50:39;;;;;;;10.02;4.32;;;;;;;24.80;100.00;98104.19;5049598;28;20436;-55
2022/06/06 07:53:34;;;;;;;9.25;4.25;;;;;;;25.70;100.00;98090.00;5049088;28;20029;-55
2022/06/06 07:56:21;;;;;;;9.27;4.22;;;;;;;24.99;100.00;98097.03;5048046;28;20037;-55
2022/06/06 07:58:46;;;;;;;7.78;4.47;;;;;;;26.88;100.00;98098.25;5050242;28;20513;-55
2022/06/06 08:01:50;;;;;;;8.57;4.50;;;;;;;27.07;100.00;98092.59;5048525;28;20041;-55
2022/06/06 08:04:24;;;;;;;10.45;4.00;;;;;;;26.88;99.37;98095.56;5048509;28;20036;-56
2022/06/06 08:07:19;;;;;;;9.25;4.25;;;;;;;27.86;95.41;98092.94;5048867;28;20033;-56
2022/06/06 08:09:47;;;;;;;11.45;4.00;;;;;;;29.35;80.50;98085.00;5047085;28;20017;-57
2022/06/06 08:12:34;;;;;;;8.43;4.15;;;;;;;27.20;80.83;98085.88;5048770;28;20704;-56
2022/06/06 08:15:21;;;;;;;7.22;3.83;;;;;;;27.87;79.38;98083.03;5047474;28;20036;-56
2022/06/06 08:18:11;;;;;;;9.95;4.32;;;;;;;28.15;72.93;98083.47;5046116;28;20833;-55
2022/06/06 08:21:09;;;;;;;6.95;3.50;;;;;;;32.44;56.07;98076.44;5048784;28;20036;-56
2022/06/06 08:23:37;;;;;;;7.50;3.53;;;;;;;30.62;55.93;98081.50;5031737;28;20115;-55
2022/06/06 08:26:04;;;;;;;7.97;3.63;;;;;;;32.87;53.50;98075.34;5045754;28;20044;-56
2022/06/06 08:28:33;;;;;;;6.55;3.42;;;;;;;33.91;49.43;98071.28;5048404;28;20044;-56
2022/06/06 08:30:59;;;;;;;7.13;3.50;;;;;;;32.41;52.22;98076.00;5046982;28;20055;-56
2022/06/06 08:33:25;;;;;;;4.32;2.80;;;;;;;32.75;50.31;98082.38;5048611;28;20028;-57
2022/06/06 08:36:21;;;;;;;4.95;2.97;;;;;;;29.96;55.05;98076.91;5048034;28;20108;-57
2022/06/06 08:39:05;;;;;;;7.30;3.05;;;;;;;31.27;53.80;98079.75;5048988;28;20055;-56
2022/06/06 08:41:49;;;;;;;4.32;2.80;;;;;;;29.95;58.03;98076.06;5048315;28;20036;-56
2022/06/06 08:44:28;;;;;;;6.68;3.40;;;;;;;27.88;67.54;98082.88;5049784;28;20119;-57
2022/06/06 08:47:20;;;;;;;6.40;3.28;;;;;;;28.42;69.95;98078.69;5047787;28;20037;-56
2022/06/06 08:53:16;;;;;;;7.50;4.00;;;;;;;26.47;83.01;98082.06;5046972;28;20051;-56
2022/06/06 08:56:04;;;;;;;8.10;4.30;;;;;;;28.54;69.41;98077.28;5049215;28;21417;-56
2022/06/06 08:58:56;;;;;;;9.32;3.92;;;;;;;28.55;68.02;98068.25;5049640;28;20025;-55
2022/06/06 09:01:24;;;;;;;8.52;3.47;;;;;;;27.34;74.47;98076.41;5017231;28;20033;-57
2022/06/06 09:04:37;;;;;;;7.90;3.60;;;;;;;26.59;82.34;98074.56;5050151;28;20036;-56
2022/06/06 09:07:22;;;;;;;9.20;3.97;;;;;;;28.58;67.36;98062.53;4977885;28;20504;-59
2022/06/06 09:10:09;;;;;;;7.70;3.83;;;;;;;30.66;61.65;98069.34;4977879;28;20567;-56
2022/06/06 09:12:53;;;;;;;7.53;3.70;;;;;;;30.98;57.04;98048.38;5034325;28;20101;-58
2022/06/06 09:15:48;;;;;;;8.43;3.67;;;;;;;28.55;59.22;98051.31;5048366;28;20030;-57
2022/06/06 09:18:38;;;;;;;11.73;3.83;;;;;;;28.25;62.12;98051.94;5045553;28;20025;-57
2022/06/06 09:21:58;;;;;;;7.10;3.42;;;;;;;27.69;61.80;98057.25;5048095;28;20045;-57
2022/06/06 09:24:42;;;;;;;8.70;3.75;;;;;;;27.80;65.04;98053.38;4988400;28;20037;-56
2022/06/06 09:27:29;;;;;;;6.57;3.28;;;;;;;26.67;67.28;98046.03;5041306;28;20040;-57
2022/06/06 09:30:19;;;;;;;9.25;3.83;;;;;;;27.50;68.79;98047.75;5046398;28;20123;-56
2022/06/06 09:32:44;;;;;;;7.95;3.40;;;;;;;29.28;63.30;98047.31;5048492;28;20617;-58
2022/06/06 09:35:22;;;;;;;8.68;3.35;;;;;;;29.24;59.35;98042.47;5045791;28;20037;-57
2022/06/06 09:38:14;;;;;;;9.18;3.38;;;;;;;28.28;58.93;98034.66;5044735;28;20040;-57
2022/06/06 09:41:37;;;;;;;8.07;3.35;;;;;;;29.73;64.03;98037.47;5046457;28;20037;-63
2022/06/06 09:44:39;;;;;;;7.60;3.33;;;;;;;28.89;57.46;98031.31;4972236;28;20594;-60
2022/06/06 09:47:36;;;;;;;8.30;3.40;;;;;;;29.70;60.17;98045.06;4973151;28;20521;-60
2022/06/06 09:50:26;;;;;;;10.60;4.18;;;;;;;27.33;62.49;98040.72;5045481;28;20744;-58
2022/06/06 09:53:18;;;;;;;8.73;3.42;;;;;;;27.11;66.73;98034.19;5043641;28;20036;-57
2022/06/06 09:59:01;;;;;;;11.90;3.92;;;;;;;25.42;71.82;98035.88;5045125;28;20039;-60
2022/06/06 10:01:42;;;;;;;9.63;3.78;;;;;;;25.64;74.97;98039.84;5042996;28;20123;-59
2022/06/06 10:04:19;;;;;;;9.30;3.60;;;;;;;25.31;77.45;98039.63;5046503;28;20115;-58
2022/06/06 10:07:03;;;;;;;9.15;3.63;;;;;;;24.50;82.06;98037.81;5044695;28;20069;-58
2022/06/06 10:09:40;;;;;;;12.57;3.72;;;;;;;24.20;90.15;98038.00;5046174;28;20087;-58
2022/06/06 10:12:22;;;;;;;10.52;3.88;;;;;;;24.08;100.00;98043.66;5046700;28;20048;-60
2022/06/06 10:15:06;;;;;;;14.35;4.10;;;;;;;25.32;95.15;98030.63;5049248;28;20035;-59
2022/06/06 10:18:06;;;;;;;11.65;3.92;;;;;;;25.30;83.10;98030.78;5049199;28;20103;-59
2022/06/06 10:20:45;;;;;;;10.82;3.95;;;;;;;26.30;87.14;98028.53;5047794;28;20427;-57
2022/06/06 10:23:49;;;;;;;10.23;3.60;;;;;;;26.22;76.57;98031.16;5049259;28;20033;-59
2022/06/06 10:26:42;;;;;;;10.80;3.97;;;;;;;27.56;68.13;98029.34;5050070;28;20051;-59
2022/06/06 10:29:26;;;;;;;10.13;3.95;;;;;;;27.37;70.45;98026.03;5048235;28;20563;-59
2022/06/06 10:32:08;;;;;;;8.15;3.50;;;;;;;27.88;72.03;98021.22;5049803;28;20052;-57
2022/06/06 10:34:59;;;;;;;11.32;4.05;;;;;;;28.53;65.08;98026.53;5049741;28;20028;-60
2022/06/06 10:37:56;;;;;;;9.25;3.65;;;;;;;28.90;66.76;98024.94;5042550;28;20666;-58
2022/06/06 10:40:59;;;;;;;12.18;3.70;;;;;;;29.82;62.30;98015.91;5047886;28;20785;-60
2022/06/06 10:43:52;;;;;;;9.88;3.88;;;;;;;29.78;61.53;98013.59;5047600;28;20090;-56
2022/06/06 10:46:31;;;;;;;9.48;3.60;;;;;;;29.27;62.19;98018.78;5049139;28;20522;-58
2022/06/06 10:49:23;;;;;;;9.02;3.80;;;;;;;27.73;69.33;98020.25;5046942;28;20393;-60
2022/06/06 10:51:49;;;;;;;9.80;3.60;;;;;;;27.27;76.01;98020.00;5048570;28;20063;-59
2022/06/06 10:54:33;;;;;;;10.38;3.85;;;;;;;26.35;81.58;98015.47;5048006;28;20486;-58
2022/06/06 10:57:42;;;;;;;12.57;4.00;;;;;;;27.27;78.17;98015.47;5046558;28;20078;-57
2022/06/06 11:00:19;;;;;;;12.45;4.50;;;;;;;27.12;70.63;98007.25;5045450;28;20132;-58
2022/06/06 11:03:15;;;;;;;8.95;3.60;;;;;;;28.30;66.34;98004.97;5048349;28;20152;-61
2022/06/06 11:05:52;;;;;;;9.80;3.35;;;;;;;28.89;59.10;98002.59;5052471;28;20040;-60
2022/06/06 11:09:02;;;;;;;15.00;4.00;;;;;;;29.45;55.88;98004.19;5044055;28;20371;-60
2022/06/06 11:11:48;;;;;;;9.50;3.50;;;;;;;30.39;58.54;97993.69;5046334;28;20045;-59
2022/06/06 11:14:26;;;;;;;9.70;3.78;;;;;;;28.67;54.36;97985.47;5045162;28;20024;-58
2022/06/06 11:17:29;;;;;;;8.13;2.78;;;;;;;27.97;58.52;97981.00;5048169;28;20482;-59
2022/06/06 11:20:31;;;;;;;8.93;3.22;;;;;;;28.98;52.14;97971.97;5047339;28;20029;-61
2022/06/06 11:22:59;;;;;;;10.50;3.58;;;;;;;29.19;53.16;97978.56;5046263;28;20482;-60
2022/06/06 11:25:26;;;;;;;12.00;3.65;;;;;;;29.17;51.10;97977.88;5048932;28;20055;-60
2022/06/06 11:28:06;;;;;;;10.23;3.55;;;;;;;29.00;54.97;97969.97;5047117;28;20135;-59
2022/06/06 11:30:41;;;;;;;8.10;3.05;;;;;;;29.57;52.45;97957.00;5045580;28;20087;-58
2022/06/06 11:33:30;;;;;;;8.68;3.20;;;;;;;29.30;53.99;97963.84;5045932;28;20076;-57
2022/06/06 11:36:16;;;;;;;10.23;3.38;;;;;;;29.13;53.26;97957.75;5046900;28;20128;-58
2022/06/06 11:38:45;;;;;;;8.07;3.10;;;;;;;27.32;55.55;97963.25;5047920;28;20024;-58
2022/06/06 11:41:34;;;;;;;7.53;3.03;;;;;;;27.06;58.94;97967.78;5045878;28;20492;-59
2022/06/06 11:44:26;;;;;;;10.00;3.28;;;;;;;27.16;55.55;97961.41;5046421;28;20031;-64
2022/06/06 11:47:26;;;;;;;7.65;3.20;;;;;;;27.81;56.08;97957.72;5046757;28;20518;-63
2022/06/06 11:50:28;;;;;;;10.02;3.33;;;;;;;28.06;59.59;97953.97;5047658;28;20036;-65
2022/06/06 11:53:20;;;;;;;8.93;3.45;;;;;;;27.87;57.26;97957.06;5047700;28;20498;-61
2022/06/06 11:56:17;;;;;;;10.68;3.75;;;;;;;27.56;64.37;97954.31;5045274;28;20071;-59
2022/06/06 11:58:45;;;;;;;10.18;3.80;;;;;;;27.14;58.62;97953.53;5014081;28;20047;-62
2022/06/06 12:01:42;;;;;;;10.93;3.53;;;;;;;28.37;55.63;97949.63;5046724;28;20037;-57
2022/06/06 12:04:17;;;;;;;8.48;3.20;;;;;;;27.55;56.77;97945.44;5048824;28;20024;-60
2022/06/06 12:06:51;;;;;;;8.63;3.10;;;;;;;28.38;51.47;97943.22;5045227;28;20077;-59
2022/06/06 12:09:24;;;;;;;9.18;3.22;;;;;;;27.08;56.70;97939.00;5046209;28;20530;-61
2022/06/06 12:12:08;;;;;;;11.30;3.75;;;;;;;28.37;55.63;97930.84;5043803;28;20048;-61
2022/06/06 12:14:55;;;;;;;7.85;2.97;;;;;;;28.50;55.44;97930.25;5046511;28;20029;-58
2022/06/06 12:17:44;;;;;;;9.07;3.03;;;;;;;27.62;48.47;97916.13;5047048;28;20132;-58
2022/06/06 12:20:32;;;;;;;11.02;3.58;;;;;;;27.63;52.39;97923.16;5044781;28;20108;-59
2022/06/06 12:23:10;;;;;;;12.02;3.67;;;;;;;26.79;51.42;97919.94;5047524;28;20028;-59
2022/06/06 12:25:50;;;;;;;10.05;3.00;;;;;;;26.95;57.24;97922.63;5045819;28;20068;-59
2022/06/06 12:28:28;;;;;;;12.90;3.75;;;;;;;26.68;56.03;97916.59;5045674;28;20024;-62
2022/06/06 12:31:02;;;;;;;8.25;2.85;;;;;;;26.00;56.56;97925.66;5048021;28;20461;-58
2022/06/06 12:33:35;;;;;;;7.90;2.83;;;;;;;26.38;58.28;97930.63;5046466;28;20017;-62
2022/06/06 12:36:14;;;;;;;11.57;3.83;;;;;;;25.80;67.16;97930.41;5046211;28;20036;-61
2022/06/06 12:38:49;;;;;;;11.07;3.65;;;;;;;25.83;74.53;97930.09;5045911;28;20029;-59
2022/06/06 12:41:37;;;;;;;10.15;3.38;;;;;;;25.51;85.94;97928.97;5045279;28;20040;-58